createdAt,value
2019-03-27T00:00:30.762Z,19.20
2019-03-27T00:02:51.973Z,19.90
2019-03-27T00:05:13.775Z,17.50
2019-03-27T00:07:35.162Z,23.20
2019-03-27T00:09:56.367Z,35.43
2019-03-27T00:12:17.580Z,20.27
2019-03-27T00:14:38.789Z,18.23
2019-03-27T00:17:00.083Z,19.93
2019-03-27T00:19:35.210Z,18.00
2019-03-27T00:21:56.515Z,17.23
2019-03-27T00:24:17.819Z,20.30
2019-03-27T00:26:39.006Z,18.80
2019-03-27T00:29:00.242Z,17.47
2019-03-27T00:31:21.442Z,20.20
2019-03-27T00:33:43.789Z,18.23
2019-03-27T00:36:05.017Z,16.67
2019-03-27T00:38:26.313Z,17.87
2019-03-27T00:40:47.521Z,17.50
2019-03-27T00:43:08.806Z,18.40
2019-03-27T00:45:30.019Z,18.33
2019-03-27T00:47:51.216Z,15.00
2019-03-27T00:50:12.537Z,18.67
2019-03-27T00:52:33.737Z,18.23
2019-03-27T00:54:54.935Z,17.97
2019-03-27T00:57:17.351Z,16.40
2019-03-27T00:59:38.648Z,15.97
2019-03-27T01:01:59.873Z,16.50
2019-03-27T01:04:21.392Z,17.07
2019-03-27T01:06:42.661Z,18.10
2019-03-27T01:09:04.248Z,20.13
2019-03-27T01:11:25.543Z,16.90
2019-03-27T01:13:46.742Z,16.30
2019-03-27T01:16:08.078Z,17.10
2019-03-27T01:18:29.266Z,19.07
2019-03-27T01:20:50.486Z,18.20
2019-03-27T01:23:11.667Z,17.80
2019-03-27T01:25:32.877Z,21.00
2019-03-27T01:27:54.066Z,21.40
2019-03-27T01:30:15.984Z,18.03
2019-03-27T01:32:37.288Z,20.00
2019-03-27T01:34:58.499Z,18.67
2019-03-27T01:37:20.773Z,20.57
2019-03-27T01:39:41.966Z,18.20
2019-03-27T01:42:03.154Z,16.60
2019-03-27T01:44:24.452Z,18.43
2019-03-27T01:46:45.638Z,17.37
2019-03-27T01:49:06.851Z,17.97
2019-03-27T01:51:28.062Z,16.43
2019-03-27T01:53:49.246Z,16.07
2019-03-27T01:56:10.435Z,15.50
2019-03-27T01:58:32.916Z,18.60
2019-03-27T02:00:54.293Z,17.17
2019-03-27T02:03:15.542Z,19.23
2019-03-27T02:05:36.825Z,16.80
2019-03-27T02:07:58.044Z,18.37
2019-03-27T02:10:19.240Z,17.73
2019-03-27T02:12:40.431Z,17.07
2019-03-27T02:15:03.196Z,18.43
2019-03-27T02:17:24.695Z,19.30
2019-03-27T02:19:45.876Z,18.63
2019-03-27T02:22:09.887Z,16.43
2019-03-27T02:24:31.067Z,17.07
2019-03-27T02:26:52.267Z,15.33
2019-03-27T02:29:13.442Z,18.57
2019-03-27T02:31:34.650Z,16.80
2019-03-27T02:33:55.966Z,17.60
2019-03-27T02:36:17.664Z,18.77
2019-03-27T02:38:38.957Z,16.30
2019-03-27T02:41:00.255Z,17.33
2019-03-27T02:43:21.458Z,16.07
2019-03-27T02:45:42.770Z,21.07
2019-03-27T02:48:03.944Z,17.23
2019-03-27T02:50:25.426Z,17.13
2019-03-27T02:52:46.615Z,16.00
2019-03-27T02:55:07.898Z,17.90
2019-03-27T02:57:29.094Z,17.27
2019-03-27T02:59:50.276Z,18.60
2019-03-27T03:02:11.474Z,16.20
2019-03-27T03:04:32.769Z,15.70
2019-03-27T03:06:53.971Z,19.60
2019-03-27T03:09:15.252Z,18.10
2019-03-27T03:11:36.453Z,15.27
2019-03-27T03:13:57.659Z,19.10
2019-03-27T03:16:18.865Z,15.80
2019-03-27T03:18:40.046Z,15.20
2019-03-27T03:21:01.236Z,17.57
2019-03-27T03:23:22.517Z,15.90
2019-03-27T03:25:43.741Z,17.60
2019-03-27T03:28:05.134Z,14.47
2019-03-27T03:30:26.358Z,16.87
2019-03-27T03:32:47.639Z,17.03
2019-03-27T03:35:10.090Z,15.97
2019-03-27T03:37:31.367Z,17.93
2019-03-27T03:39:52.551Z,16.23
2019-03-27T03:42:13.749Z,16.00
2019-03-27T03:44:35.141Z,15.83
2019-03-27T03:47:00.277Z,15.90
2019-03-27T03:49:19.535Z,16.40
2019-03-27T03:51:41.254Z,16.80
2019-03-27T03:54:03.543Z,15.07
2019-03-27T03:56:26.446Z,20.00
2019-03-27T03:58:48.634Z,17.93
2019-03-27T04:01:10.364Z,14.40
2019-03-27T04:03:33.569Z,17.90
2019-03-27T04:05:54.746Z,18.13
2019-03-27T04:08:16.041Z,17.37
2019-03-27T04:10:37.213Z,16.93
2019-03-27T04:12:59.512Z,18.70
2019-03-27T04:15:20.685Z,16.33
2019-03-27T04:17:41.891Z,17.03
2019-03-27T04:20:05.656Z,17.57
2019-03-27T04:22:26.849Z,15.90
2019-03-27T04:24:48.014Z,17.83
2019-03-27T04:27:09.230Z,15.67
2019-03-27T04:29:30.429Z,19.50
2019-03-27T04:31:51.614Z,18.20
2019-03-27T04:34:26.240Z,20.77
2019-03-27T04:36:47.427Z,16.73
2019-03-27T04:39:08.993Z,17.87
2019-03-27T04:41:30.187Z,18.83
2019-03-27T04:43:51.369Z,16.10
2019-03-27T04:46:12.569Z,17.23
2019-03-27T04:48:33.814Z,20.23
2019-03-27T04:50:55.077Z,18.40
2019-03-27T04:53:16.279Z,15.83
2019-03-27T04:55:37.476Z,19.67
2019-03-27T04:57:59.490Z,16.73
2019-03-27T05:00:20.816Z,16.00
2019-03-27T05:02:42.016Z,17.33
2019-03-27T05:05:05.935Z,17.30
2019-03-27T05:07:27.222Z,15.70
2019-03-27T05:09:48.558Z,19.43
2019-03-27T05:12:09.955Z,17.83
2019-03-27T05:14:31.484Z,17.93
2019-03-27T05:16:52.823Z,17.90
2019-03-27T05:19:14.178Z,18.33
2019-03-27T05:21:35.743Z,17.53
2019-03-27T05:23:57.016Z,17.93
2019-03-27T05:26:18.367Z,17.43
2019-03-27T05:28:39.663Z,20.00
2019-03-27T05:31:00.953Z,16.57
2019-03-27T05:33:22.197Z,20.50
2019-03-27T05:35:43.418Z,16.67
2019-03-27T05:38:04.935Z,17.77
2019-03-27T05:40:26.157Z,17.53
2019-03-27T05:43:00.029Z,17.80
2019-03-27T05:45:10.569Z,17.63
2019-03-27T05:47:31.832Z,21.63
2019-03-27T05:49:53.062Z,18.60
2019-03-27T05:52:14.234Z,142.17
2019-03-27T05:54:48.621Z,38.37
2019-03-27T05:57:09.797Z,20.30
2019-03-27T05:59:31.126Z,67.73
2019-03-27T06:01:52.355Z,25.67
2019-03-27T06:04:13.870Z,26.93
2019-03-27T06:06:35.085Z,21.60
2019-03-27T06:08:56.335Z,19.33
2019-03-27T06:11:17.508Z,20.17
2019-03-27T06:13:38.738Z,19.33
2019-03-27T06:15:59.949Z,19.10
2019-03-27T06:18:21.157Z,24.43
2019-03-27T06:20:42.486Z,20.43
2019-03-27T06:23:03.786Z,20.23
2019-03-27T06:25:24.987Z,20.70
2019-03-27T06:27:46.598Z,18.83
2019-03-27T06:30:08.622Z,19.40
2019-03-27T06:32:33.397Z,18.73
2019-03-27T06:34:54.622Z,18.97
2019-03-27T06:37:15.827Z,20.43
2019-03-27T06:39:37.269Z,19.57
2019-03-27T06:41:58.470Z,21.13
2019-03-27T06:44:19.667Z,21.70
2019-03-27T06:46:40.848Z,19.43
2019-03-27T06:49:02.054Z,22.23
2019-03-27T06:51:25.171Z,23.47
2019-03-27T06:53:46.515Z,21.43
2019-03-27T06:56:07.709Z,19.00
2019-03-27T06:58:29.006Z,21.93
2019-03-27T07:00:50.206Z,21.30
2019-03-27T07:03:11.414Z,22.20
2019-03-27T07:05:32.728Z,27.87
2019-03-27T07:07:54.249Z,28.87
2019-03-27T07:10:15.562Z,22.93
2019-03-27T07:12:36.750Z,25.53
2019-03-27T07:14:58.059Z,25.43
2019-03-27T07:17:19.252Z,29.07
2019-03-27T07:19:40.429Z,25.73
2019-03-27T07:22:01.768Z,30.23
2019-03-27T07:24:23.437Z,27.80
2019-03-27T07:26:44.639Z,26.83
2019-03-27T07:29:05.805Z,23.23
2019-03-27T07:31:27.011Z,23.27
2019-03-27T07:33:48.292Z,26.00
2019-03-27T07:36:09.607Z,26.17
2019-03-27T07:38:30.814Z,27.20
2019-03-27T07:40:52.012Z,28.13
2019-03-27T07:43:13.222Z,27.57
2019-03-27T07:45:34.426Z,28.40
2019-03-27T07:47:55.836Z,27.77
2019-03-27T07:50:17.071Z,29.10
2019-03-27T07:52:38.247Z,31.83
2019-03-27T07:54:59.455Z,33.87
2019-03-27T07:57:20.722Z,31.30
2019-03-27T07:59:41.998Z,31.50
2019-03-27T08:02:03.230Z,29.90
2019-03-27T08:04:24.439Z,31.40
2019-03-27T08:06:45.649Z,26.77
2019-03-27T08:09:06.827Z,29.17
2019-03-27T08:11:28.178Z,31.80
2019-03-27T08:13:49.464Z,30.80
2019-03-27T08:16:11.860Z,27.83
2019-03-27T08:18:33.045Z,28.40
2019-03-27T08:20:54.330Z,26.47
2019-03-27T08:23:15.548Z,26.50
2019-03-27T08:25:36.872Z,30.53
2019-03-27T08:27:58.366Z,23.53
2019-03-27T08:30:19.761Z,27.33
2019-03-27T08:32:41.039Z,28.23
2019-03-27T08:35:04.369Z,30.13
2019-03-27T08:37:25.701Z,20.80
2019-03-27T08:39:47.200Z,18.73
2019-03-27T08:42:08.429Z,16.40
2019-03-27T08:44:29.818Z,14.13
2019-03-27T08:46:51.021Z,18.10
2019-03-27T08:49:22.013Z,17.20
2019-03-27T08:51:35.628Z,15.77
2019-03-27T08:53:56.844Z,16.03
2019-03-27T08:56:18.222Z,12.90
2019-03-27T08:58:39.422Z,11.97
2019-03-27T09:01:00.642Z,12.13
2019-03-27T09:03:21.854Z,14.70
2019-03-27T09:05:43.183Z,13.83
2019-03-27T09:08:04.403Z,12.23
2019-03-27T09:10:25.681Z,10.30
2019-03-27T09:12:47.137Z,11.33
2019-03-27T09:15:08.826Z,11.47
2019-03-27T09:17:30.069Z,12.27
2019-03-27T09:19:51.269Z,9.93
2019-03-27T09:22:12.573Z,14.17
2019-03-27T09:24:33.758Z,14.10
2019-03-27T09:26:55.021Z,9.73
2019-03-27T09:29:16.298Z,12.50
2019-03-27T09:31:44.644Z,12.73
2019-03-27T09:34:00.749Z,14.40
2019-03-27T09:36:21.937Z,12.93
2019-03-27T09:38:43.242Z,11.07
2019-03-27T09:41:04.416Z,12.60
2019-03-27T09:43:25.629Z,18.63
2019-03-27T09:45:46.908Z,15.83
2019-03-27T09:48:08.104Z,14.30
2019-03-27T09:50:29.295Z,13.67
2019-03-27T09:52:50.690Z,13.50
2019-03-27T09:55:13.779Z,15.83
2019-03-27T09:57:34.986Z,14.30
2019-03-27T09:59:56.179Z,13.37
2019-03-27T10:02:17.428Z,14.93
2019-03-27T10:04:38.773Z,14.80
2019-03-27T10:06:59.990Z,14.03
2019-03-27T10:09:21.213Z,14.33
2019-03-27T10:11:42.771Z,16.90
2019-03-27T10:14:04.414Z,13.97
2019-03-27T10:16:25.621Z,17.87
2019-03-27T10:18:47.583Z,16.23
2019-03-27T10:21:09.302Z,17.03
2019-03-27T10:23:30.601Z,16.80
2019-03-27T10:25:51.794Z,16.40
2019-03-27T10:28:13.001Z,13.63
2019-03-27T10:30:35.375Z,15.20
2019-03-27T10:32:56.582Z,13.00
2019-03-27T10:35:17.942Z,14.47
2019-03-27T10:37:39.178Z,9.10
2019-03-27T10:40:00.382Z,11.37
2019-03-27T10:42:21.659Z,9.20
2019-03-27T10:44:42.839Z,10.93
2019-03-27T10:47:04.071Z,11.37
2019-03-27T10:49:25.256Z,11.30
2019-03-27T10:51:46.446Z,14.37
2019-03-27T10:54:07.647Z,11.00
2019-03-27T10:56:28.822Z,9.50
2019-03-27T10:58:50.017Z,10.50
2019-03-27T11:01:11.545Z,8.37
2019-03-27T11:03:32.756Z,10.17
2019-03-27T11:05:53.979Z,10.50
2019-03-27T11:08:15.216Z,9.13
2019-03-27T11:10:36.452Z,8.50
2019-03-27T11:12:57.662Z,8.10
2019-03-27T11:15:19.058Z,9.07
2019-03-27T11:17:41.632Z,5.73
2019-03-27T11:20:05.822Z,6.50
2019-03-27T11:22:27.026Z,6.57
2019-03-27T11:24:48.212Z,6.17
2019-03-27T11:27:09.635Z,7.10
2019-03-27T11:29:30.841Z,7.97
2019-03-27T11:31:52.014Z,6.63
2019-03-27T11:34:13.222Z,6.40
2019-03-27T11:36:35.332Z,6.97
2019-03-27T11:38:56.607Z,10.77
2019-03-27T11:41:18.141Z,9.67
2019-03-27T11:43:39.346Z,7.90
2019-03-27T11:46:00.736Z,6.73
2019-03-27T11:48:21.943Z,6.13
2019-03-27T11:50:45.329Z,5.60
2019-03-27T11:53:06.213Z,7.90
2019-03-27T11:55:27.521Z,5.80
2019-03-27T11:57:48.710Z,6.53
2019-03-27T12:00:10.921Z,5.57
2019-03-27T12:02:32.201Z,6.50
2019-03-27T12:04:53.410Z,6.20
2019-03-27T12:07:14.743Z,8.43
2019-03-27T12:09:36.042Z,6.13
2019-03-27T12:11:57.367Z,6.07
2019-03-27T12:14:18.659Z,6.63
2019-03-27T12:16:39.862Z,6.40
2019-03-27T12:19:01.358Z,6.00
2019-03-27T12:21:22.628Z,8.13
2019-03-27T12:23:43.923Z,7.17
2019-03-27T12:26:06.162Z,6.40
2019-03-27T12:28:29.890Z,7.37
2019-03-27T12:30:51.114Z,8.63
2019-03-27T12:33:12.307Z,11.63
2019-03-27T12:35:33.538Z,8.53
2019-03-27T12:37:54.740Z,7.67
2019-03-27T12:40:15.971Z,7.17
2019-03-27T12:42:38.438Z,8.40
2019-03-27T12:45:01.842Z,7.40
2019-03-27T12:47:23.402Z,9.10
2019-03-27T12:49:45.107Z,9.03
2019-03-27T12:52:06.434Z,7.63
2019-03-27T12:54:27.637Z,7.87
2019-03-27T12:56:49.054Z,7.30
2019-03-27T12:59:10.392Z,8.20
2019-03-27T13:01:31.582Z,6.80
2019-03-27T13:03:53.018Z,6.60
2019-03-27T13:06:14.234Z,6.33
2019-03-27T13:08:35.638Z,6.80
2019-03-27T13:10:56.891Z,7.70
2019-03-27T13:13:19.134Z,7.17
2019-03-27T13:15:40.433Z,8.40
2019-03-27T13:18:01.622Z,6.47
2019-03-27T13:20:22.951Z,7.33
2019-03-27T13:22:44.313Z,6.87
2019-03-27T13:25:07.237Z,6.50
2019-03-27T13:27:28.745Z,8.07
2019-03-27T13:29:50.043Z,6.57
2019-03-27T13:32:11.321Z,8.47
2019-03-27T13:34:32.565Z,6.97
2019-03-27T13:36:53.758Z,8.77
2019-03-27T13:39:14.953Z,7.03
2019-03-27T13:41:36.165Z,6.57
2019-03-27T13:43:57.349Z,6.23
2019-03-27T13:46:18.544Z,6.73
2019-03-27T13:48:39.729Z,6.53
2019-03-27T13:51:00.957Z,6.23
2019-03-27T13:53:22.136Z,12.73
2019-03-27T13:55:43.313Z,7.77
2019-03-27T13:58:04.515Z,8.63
2019-03-27T14:00:25.811Z,6.27
2019-03-27T14:02:47.025Z,7.23
2019-03-27T14:05:09.736Z,8.57
2019-03-27T14:07:31.257Z,8.20
2019-03-27T14:09:52.442Z,6.77
2019-03-27T14:12:13.635Z,9.10
2019-03-27T14:14:34.841Z,7.77
2019-03-27T14:16:56.051Z,5.90
2019-03-27T14:19:20.876Z,8.63
2019-03-27T14:21:53.983Z,6.57
2019-03-27T14:24:05.248Z,5.07
2019-03-27T14:26:26.458Z,6.13
2019-03-27T14:28:53.470Z,4.63
2019-03-27T14:31:14.668Z,7.50
2019-03-27T14:33:36.137Z,7.47
2019-03-27T14:35:58.032Z,6.50
2019-03-27T14:38:19.665Z,7.73
2019-03-27T14:40:41.249Z,5.47
2019-03-27T14:43:02.481Z,5.93
2019-03-27T14:45:24.419Z,5.77
2019-03-27T14:47:45.894Z,9.20
2019-03-27T14:50:09.361Z,5.33
2019-03-27T14:52:30.640Z,5.57
2019-03-27T14:54:51.809Z,6.37
2019-03-27T14:57:13.120Z,5.33
2019-03-27T14:59:34.441Z,7.20
2019-03-27T15:01:55.635Z,5.27
2019-03-27T15:04:17.373Z,6.17
2019-03-27T15:06:38.594Z,4.53
2019-03-27T15:08:59.819Z,5.40
2019-03-27T15:11:21.256Z,5.33
2019-03-27T15:13:42.460Z,4.87
2019-03-27T15:16:03.835Z,6.27
2019-03-27T15:18:26.244Z,6.00
2019-03-27T15:20:47.542Z,4.17
2019-03-27T15:23:08.793Z,4.40
2019-03-27T15:25:36.111Z,5.43
2019-03-27T15:27:58.850Z,4.07
2019-03-27T15:30:20.102Z,5.70
2019-03-27T15:32:41.730Z,6.10
2019-03-27T15:35:04.730Z,5.50
2019-03-27T15:37:25.952Z,5.60
2019-03-27T15:39:47.213Z,3.63
2019-03-27T15:42:09.302Z,4.23
2019-03-27T15:44:30.891Z,5.93
2019-03-27T15:46:52.077Z,4.93
2019-03-27T15:49:13.276Z,6.33
2019-03-27T15:51:34.503Z,5.60
2019-03-27T15:53:55.786Z,4.60
2019-03-27T15:56:16.977Z,4.00
2019-03-27T15:58:38.162Z,10.30
2019-03-27T16:00:59.370Z,8.55
2019-03-27T16:03:20.580Z,6.87
2019-03-27T16:05:41.803Z,5.27
2019-03-27T16:08:03.141Z,6.20
2019-03-27T16:10:28.477Z,5.63
2019-03-27T16:12:49.823Z,6.40
2019-03-27T16:15:13.773Z,6.80
2019-03-27T16:17:36.915Z,5.20
2019-03-27T16:19:58.188Z,9.23
2019-03-27T16:22:20.703Z,5.90
2019-03-27T16:24:41.922Z,5.33
2019-03-27T16:27:04.624Z,7.03
2019-03-27T16:29:26.343Z,7.30
2019-03-27T16:31:47.580Z,8.27
2019-03-27T16:34:08.770Z,8.63
2019-03-27T16:36:29.978Z,7.00
2019-03-27T16:38:51.683Z,6.50
2019-03-27T16:41:12.964Z,7.10
2019-03-27T16:43:35.446Z,6.00
2019-03-27T16:45:56.643Z,4.97
2019-03-27T16:48:18.022Z,8.77
2019-03-27T16:50:41.933Z,5.30
2019-03-27T16:53:04.062Z,8.37
2019-03-27T16:55:25.710Z,5.10
2019-03-27T16:57:46.970Z,9.80
2019-03-27T17:00:09.726Z,4.80
2019-03-27T17:02:30.953Z,7.20
2019-03-27T17:04:53.277Z,5.03
2019-03-27T17:07:14.496Z,5.60
2019-03-27T17:09:35.701Z,4.43
2019-03-27T17:11:56.923Z,3.57
2019-03-27T17:14:18.129Z,10.93
2019-03-27T17:16:39.797Z,10.97
2019-03-27T17:19:01.285Z,5.23
2019-03-27T17:21:22.565Z,4.53
2019-03-27T17:23:43.878Z,6.70
2019-03-27T17:26:05.140Z,5.87
2019-03-27T17:28:26.338Z,8.53
2019-03-27T17:30:47.537Z,4.67
2019-03-27T17:33:08.746Z,3.90
2019-03-27T17:35:29.979Z,4.63
2019-03-27T17:37:51.192Z,4.50
2019-03-27T17:40:18.457Z,5.40
2019-03-27T17:42:39.773Z,4.10
2019-03-27T17:45:01.015Z,6.13
2019-03-27T17:47:22.476Z,4.50
2019-03-27T17:49:43.702Z,5.27
2019-03-27T17:52:04.882Z,5.20
2019-03-27T17:54:26.099Z,3.37
2019-03-27T17:56:47.369Z,4.90
2019-03-27T17:59:08.601Z,5.77
2019-03-27T18:01:33.368Z,5.53
2019-03-27T18:03:54.582Z,5.27
2019-03-27T18:06:15.805Z,4.80
2019-03-27T18:08:37.002Z,5.23
2019-03-27T18:10:58.287Z,8.53
2019-03-27T18:13:20.798Z,4.60
2019-03-27T18:15:42.040Z,6.87
2019-03-27T18:18:03.306Z,7.50
2019-03-27T18:20:24.482Z,7.50
2019-03-27T18:22:45.813Z,6.07
2019-03-27T18:25:07.442Z,8.17
2019-03-27T18:27:29.699Z,4.80
2019-03-27T18:29:52.199Z,7.33
2019-03-27T18:32:13.457Z,4.70
2019-03-27T18:34:34.677Z,6.17
2019-03-27T18:36:55.905Z,6.73
2019-03-27T18:39:17.267Z,7.13
2019-03-27T18:41:38.567Z,6.93
2019-03-27T18:44:03.076Z,8.87
2019-03-27T18:46:23.083Z,7.33
2019-03-27T18:48:44.302Z,6.77
2019-03-27T18:51:05.514Z,7.27
2019-03-27T18:53:26.742Z,6.90
2019-03-27T18:55:48.318Z,8.00
2019-03-27T18:58:09.909Z,10.33
2019-03-27T19:00:31.164Z,7.87
2019-03-27T19:02:52.654Z,6.43
2019-03-27T19:05:14.067Z,7.63
2019-03-27T19:07:35.304Z,10.13
2019-03-27T19:09:56.661Z,5.57
2019-03-27T19:12:19.656Z,10.57
2019-03-27T19:14:41.460Z,9.77
2019-03-27T19:17:02.664Z,8.47
2019-03-27T19:19:23.906Z,9.43
2019-03-27T19:21:45.197Z,9.43
2019-03-27T19:24:16.172Z,11.07
2019-03-27T19:26:33.203Z,15.87
2019-03-27T19:28:55.019Z,26.93
2019-03-27T19:31:16.219Z,21.53
2019-03-27T19:33:37.564Z,11.50
2019-03-27T19:35:58.817Z,10.97
2019-03-27T19:38:20.014Z,10.13
2019-03-27T19:40:50.321Z,10.93
2019-03-27T19:43:11.529Z,11.73
2019-03-27T19:45:32.920Z,11.23
2019-03-27T19:47:54.115Z,13.60
2019-03-27T19:50:18.659Z,10.17
2019-03-27T19:52:40.026Z,11.23
2019-03-27T19:55:01.285Z,11.97
2019-03-27T19:57:22.596Z,10.43
2019-03-27T19:59:43.840Z,9.27
2019-03-27T20:02:05.065Z,9.93
2019-03-27T20:04:26.304Z,8.57
2019-03-27T20:06:48.168Z,10.00
2019-03-27T20:09:09.615Z,8.27
2019-03-27T20:11:31.134Z,9.90
2019-03-27T20:13:52.674Z,49.00
2019-03-27T20:16:14.140Z,57.47
2019-03-27T20:18:35.487Z,40.03
2019-03-27T20:20:56.852Z,15.23
2019-03-27T20:23:18.184Z,40.67
2019-03-27T20:25:40.484Z,74.50
2019-03-27T20:28:02.034Z,22.30
2019-03-27T20:30:26.594Z,16.47
2019-03-27T20:32:47.007Z,13.50
2019-03-27T20:35:08.419Z,10.37
2019-03-27T20:37:32.922Z,15.47
2019-03-27T20:39:54.314Z,10.50
2019-03-27T20:42:15.783Z,15.13
2019-03-27T20:44:37.125Z,12.37
2019-03-27T20:46:59.783Z,12.83
2019-03-27T20:49:21.018Z,14.47
2019-03-27T20:51:42.281Z,15.57
2019-03-27T20:54:03.666Z,17.67
2019-03-27T20:56:25.153Z,18.60
2019-03-27T20:58:46.679Z,15.40
2019-03-27T21:01:11.104Z,13.67
2019-03-27T21:03:37.024Z,17.20
2019-03-27T21:06:00.485Z,13.63
2019-03-27T21:08:21.834Z,11.63
2019-03-27T21:10:43.098Z,12.00
2019-03-27T21:13:04.497Z,11.03
2019-03-27T21:15:25.855Z,10.53
2019-03-27T21:17:47.221Z,9.47
2019-03-27T21:20:08.800Z,8.07
2019-03-27T21:22:30.173Z,12.00
2019-03-27T21:24:51.499Z,13.57
2019-03-27T21:27:12.766Z,12.70
2019-03-27T21:29:34.115Z,12.40
2019-03-27T21:31:57.558Z,11.73
2019-03-27T21:34:19.497Z,10.23
2019-03-27T21:36:42.072Z,11.87
2019-03-27T21:39:06.156Z,13.07
2019-03-27T21:41:30.189Z,48.40
2019-03-27T21:43:51.459Z,11.47
2019-03-27T21:46:12.669Z,12.90
2019-03-27T21:48:33.889Z,11.33
2019-03-27T21:50:55.121Z,16.27
2019-03-27T21:53:16.422Z,13.77
2019-03-27T21:55:42.892Z,11.70
2019-03-27T21:58:02.215Z,10.87
2019-03-27T22:00:37.663Z,12.30
2019-03-27T22:02:58.988Z,11.53
2019-03-27T22:05:20.310Z,12.10
2019-03-27T22:07:44.597Z,10.57
2019-03-27T22:10:06.313Z,13.10
2019-03-27T22:12:27.638Z,14.73
2019-03-27T22:14:48.960Z,13.27
2019-03-27T22:17:19.041Z,14.03
2019-03-27T22:19:40.239Z,15.07
2019-03-27T22:22:01.448Z,13.37
2019-03-27T22:24:22.648Z,13.03
2019-03-27T22:26:43.850Z,12.63
2019-03-27T22:29:05.058Z,10.83
2019-03-27T22:31:26.515Z,11.33
2019-03-27T22:33:47.911Z,10.37
2019-03-27T22:36:09.134Z,10.80
2019-03-27T22:38:30.519Z,11.53
2019-03-27T22:40:51.808Z,9.87
2019-03-27T22:43:13.555Z,10.73
2019-03-27T22:45:34.799Z,13.27
2019-03-27T22:47:56.119Z,13.10
2019-03-27T22:50:17.357Z,11.13
2019-03-27T22:52:38.677Z,10.83
2019-03-27T22:55:11.997Z,10.90
2019-03-27T22:57:33.244Z,12.70
2019-03-27T22:59:54.446Z,11.77
2019-03-27T23:02:15.912Z,11.97
2019-03-27T23:04:37.159Z,13.30
2019-03-27T23:06:58.861Z,12.37
2019-03-27T23:09:20.410Z,11.80
2019-03-27T23:11:41.709Z,12.07
2019-03-27T23:14:03.011Z,12.17
2019-03-27T23:16:24.247Z,15.17
2019-03-27T23:18:45.454Z,10.70
2019-03-27T23:21:06.681Z,9.87
2019-03-27T23:23:28.058Z,11.80
2019-03-27T23:26:02.163Z,9.20
2019-03-27T23:28:12.729Z,10.53
2019-03-27T23:30:35.162Z,12.53
2019-03-27T23:32:56.411Z,13.43
2019-03-27T23:35:18.246Z,13.90
2019-03-27T23:37:40.674Z,12.13
2019-03-27T23:40:03.880Z,12.63
2019-03-27T23:42:25.210Z,11.87
2019-03-27T23:44:46.403Z,10.20
2019-03-27T23:47:09.261Z,12.77
2019-03-27T23:49:30.584Z,11.23
2019-03-27T23:51:51.801Z,9.77
2019-03-27T23:54:13.003Z,12.40
2019-03-27T23:56:34.234Z,12.63
2019-03-27T23:58:55.471Z,11.23
